createdAt,value
2018-07-25T00:00:03.957Z,20.36
2018-07-25T00:05:03.979Z,20.34
2018-07-25T00:10:03.970Z,20.25
2018-07-25T00:15:03.972Z,20.02
2018-07-25T00:20:03.980Z,19.81
2018-07-25T00:25:03.993Z,19.89
2018-07-25T00:30:03.977Z,19.88
2018-07-25T00:35:03.997Z,19.76
2018-07-25T00:40:03.985Z,19.6
2018-07-25T00:45:03.999Z,19.59
2018-07-25T00:50:03.991Z,19.52
2018-07-25T00:55:04.005Z,19.32
2018-07-25T01:00:03.992Z,19.18
2018-07-25T01:05:04.010Z,19.13
2018-07-25T01:10:04.001Z,19.03
2018-07-25T01:15:04.019Z,18.94
2018-07-25T01:20:04.008Z,18.85
2018-07-25T01:25:04.020Z,18.67
2018-07-25T01:30:04.013Z,18.47
2018-07-25T01:35:04.032Z,18.35
2018-07-25T01:40:04.017Z,18.19
2018-07-25T01:45:04.014Z,18.11
2018-07-25T01:50:04.022Z,18.15
2018-07-25T01:55:04.037Z,18.08
2018-07-25T02:00:04.029Z,17.96
2018-07-25T02:05:04.038Z,17.88
2018-07-25T02:10:04.029Z,17.93
2018-07-25T02:15:04.031Z,17.91
2018-07-25T02:20:04.049Z,17.84
2018-07-25T02:25:04.039Z,17.77
2018-07-25T02:30:04.045Z,17.82
2018-07-25T02:35:04.052Z,17.77
2018-07-25T02:40:04.048Z,17.69
2018-07-25T02:45:04.047Z,17.52
2018-07-25T02:50:04.062Z,17.55
2018-07-25T02:55:04.053Z,17.52
2018-07-25T03:00:04.053Z,17.39
2018-07-25T03:05:04.066Z,17.3
2018-07-25T03:10:04.082Z,17.37
2018-07-25T03:15:04.060Z,17.34
2018-07-25T03:20:04.069Z,17.23
2018-07-25T03:25:04.077Z,17.07
2018-07-25T03:30:04.068Z,17.13
2018-07-25T03:35:04.077Z,17.3
2018-07-25T03:40:04.077Z,17.26
2018-07-25T03:45:04.077Z,17.22
2018-07-25T03:50:04.077Z,17.14
2018-07-25T03:55:04.090Z,17.03
2018-07-25T04:00:04.088Z,16.98
2018-07-25T04:05:04.095Z,17
2018-07-25T04:10:04.091Z,17.08
2018-07-25T04:15:04.090Z,17.17
2018-07-25T04:20:04.103Z,17.22
2018-07-25T04:25:04.098Z,17.25
2018-07-25T04:30:04.106Z,17.31
2018-07-25T04:35:04.112Z,17.44
2018-07-25T04:40:04.111Z,17.53
2018-07-25T04:45:04.117Z,17.77
2018-07-25T04:50:04.127Z,17.99
2018-07-25T04:55:04.119Z,18.4
2018-07-25T05:00:04.130Z,18.8
2018-07-25T05:05:04.128Z,19.17
2018-07-25T05:10:04.126Z,19.61
2018-07-25T05:15:04.132Z,20.27
2018-07-25T05:20:04.131Z,21.49
2018-07-25T05:25:04.139Z,22.08
2018-07-25T05:30:04.182Z,22.38
2018-07-25T05:35:04.139Z,22.85
2018-07-25T05:40:04.152Z,23.1
2018-07-25T05:45:04.144Z,23.11
2018-07-25T05:50:04.145Z,23.2
2018-07-25T05:55:04.154Z,23.53
2018-07-25T06:00:04.166Z,23.7
2018-07-25T06:05:04.154Z,23.75
2018-07-25T06:10:04.158Z,23.88
2018-07-25T06:15:04.161Z,24
2018-07-25T06:20:04.170Z,23.92
2018-07-25T06:25:04.162Z,23.72
2018-07-25T06:30:04.168Z,23.7
2018-07-25T06:35:04.185Z,24.11
2018-07-25T06:40:04.178Z,24.59
2018-07-25T06:45:04.174Z,24.99
2018-07-25T06:50:04.194Z,25.57
2018-07-25T06:55:04.185Z,25.89
2018-07-25T07:00:04.188Z,26.24
2018-07-25T07:05:04.176Z,26.62
2018-07-25T07:10:04.197Z,27.46
2018-07-25T07:15:04.190Z,28.6
2018-07-25T07:20:04.192Z,29.83
2018-07-25T07:25:04.199Z,30.72
2018-07-25T07:30:04.204Z,31.34
2018-07-25T07:35:04.206Z,31.94
2018-07-25T07:40:04.202Z,32.44
2018-07-25T07:45:04.215Z,32.72
2018-07-25T07:50:04.219Z,33.33
2018-07-25T07:55:04.213Z,32.69
2018-07-25T08:00:04.220Z,31.56
2018-07-25T08:05:04.297Z,32.04
2018-07-25T08:10:04.221Z,32.5
2018-07-25T08:15:04.224Z,33.16
2018-07-25T08:20:04.310Z,33.78
2018-07-25T08:25:04.229Z,34.49
2018-07-25T08:30:04.233Z,34.71
2018-07-25T08:35:04.236Z,35.1
2018-07-25T08:40:04.235Z,35.68
2018-07-25T08:45:04.238Z,36.32
2018-07-25T08:50:04.245Z,36.4
2018-07-25T08:55:04.250Z,36.81
2018-07-25T09:00:04.247Z,36.43
2018-07-25T09:05:04.249Z,36.48
2018-07-25T09:10:04.262Z,37.13
2018-07-25T09:15:04.251Z,37.91
2018-07-25T09:20:04.262Z,37.97
2018-07-25T09:25:04.317Z,37.9
2018-07-25T09:30:04.264Z,38.52
2018-07-25T09:35:04.267Z,39.47
2018-07-25T09:40:04.275Z,39.82
2018-07-25T09:45:04.271Z,39.8
2018-07-25T09:50:04.279Z,40.38
2018-07-25T09:55:04.347Z,39.89
2018-07-25T10:00:04.280Z,39.78
2018-07-25T10:05:04.280Z,39.5
2018-07-25T10:10:04.287Z,40.26
2018-07-25T10:15:04.415Z,39.89
2018-07-25T10:20:04.305Z,40.47
2018-07-25T10:25:04.300Z,40.25
2018-07-25T10:30:04.295Z,39.87
2018-07-25T10:35:04.297Z,39.53
2018-07-25T10:40:04.301Z,38.8
2018-07-25T10:45:04.309Z,37.47
2018-07-25T10:50:04.305Z,36.9
2018-07-25T10:55:04.302Z,37.14
2018-07-25T11:00:04.314Z,38.02
2018-07-25T11:05:04.316Z,39.33
2018-07-25T11:10:04.314Z,40.59
2018-07-25T11:15:04.330Z,40.77
2018-07-25T11:20:04.324Z,40.27
2018-07-25T11:25:04.327Z,39.68
2018-07-25T11:30:04.327Z,39.59
2018-07-25T11:35:04.341Z,37.71
2018-07-25T11:40:04.329Z,36.68
2018-07-25T11:45:04.333Z,40.51
2018-07-25T11:50:04.387Z,42.38
2018-07-25T11:55:04.345Z,39.09
2018-07-25T12:00:04.347Z,40.14
2018-07-25T12:05:04.359Z,43.85
2018-07-25T12:10:04.344Z,46.96
2018-07-25T12:15:04.348Z,46.55
2018-07-25T12:20:04.355Z,46.94
2018-07-25T12:25:04.356Z,47.64
2018-07-25T12:30:04.356Z,47.38
2018-07-25T12:35:04.364Z,47.1
2018-07-25T12:40:04.362Z,47.13
2018-07-25T12:45:04.364Z,46.77
2018-07-25T12:50:04.371Z,46.07
2018-07-25T12:55:04.366Z,48.43
2018-07-25T13:00:04.373Z,48
2018-07-25T13:05:04.395Z,47.77
2018-07-25T13:10:04.381Z,47.86
2018-07-25T13:15:04.380Z,47.96
2018-07-25T13:20:04.382Z,47.78
2018-07-25T13:25:04.390Z,48.69
2018-07-25T13:30:04.386Z,49.6
2018-07-25T13:35:03.403Z,49.28
2018-07-25T13:40:03.393Z,48.39
2018-07-25T13:45:03.400Z,45.53
2018-07-25T13:50:03.422Z,43.71
2018-07-25T13:55:03.407Z,41.65
2018-07-25T14:00:03.404Z,40.4
2018-07-25T14:05:03.430Z,39.17
2018-07-25T14:10:03.418Z,39.78
2018-07-25T14:15:03.421Z,39.59
2018-07-25T14:20:03.430Z,39.84
2018-07-25T14:25:03.427Z,39.79
2018-07-25T14:30:03.447Z,39.05
2018-07-25T14:35:03.432Z,39.87
2018-07-25T14:40:03.508Z,41.25
2018-07-25T14:45:03.434Z,43.66
2018-07-25T14:50:03.443Z,45.04
2018-07-25T14:55:03.446Z,45.18
2018-07-25T15:00:03.445Z,45.21
2018-07-25T15:05:03.438Z,45.76
2018-07-25T15:10:03.468Z,46.77
2018-07-25T15:15:03.448Z,45.66
2018-07-25T15:20:03.451Z,43.77
2018-07-25T15:25:03.468Z,44.38
2018-07-25T15:30:03.454Z,46.37
2018-07-25T15:35:03.459Z,46.76
2018-07-25T15:40:03.467Z,46.22
2018-07-25T15:45:03.459Z,45.14
2018-07-25T15:50:03.463Z,41.79
2018-07-25T15:55:03.471Z,39.72
2018-07-25T16:00:03.473Z,38.38
2018-07-25T16:05:03.475Z,37.91
2018-07-25T16:10:03.554Z,37.2
2018-07-25T16:15:03.486Z,36.49
2018-07-25T16:20:03.480Z,38.31
2018-07-25T16:25:03.497Z,40.52
2018-07-25T16:30:03.488Z,41.26
2018-07-25T16:35:03.493Z,38.22
2018-07-25T16:40:03.508Z,37.05
2018-07-25T16:45:03.498Z,36.11
2018-07-25T16:50:03.501Z,35.26
2018-07-25T16:55:03.509Z,34.68
2018-07-25T17:00:03.505Z,34.5
2018-07-25T17:05:03.505Z,34.42
2018-07-25T17:10:03.508Z,34.16
2018-07-25T17:15:03.522Z,33.86
2018-07-25T17:20:03.514Z,33.73
2018-07-25T17:25:03.518Z,33.57
2018-07-25T17:30:03.528Z,33.46
2018-07-25T17:35:03.523Z,33.43
2018-07-25T17:40:03.528Z,33.38
2018-07-25T17:45:03.535Z,33.28
2018-07-25T17:50:03.530Z,33.23
2018-07-25T17:55:03.532Z,33.01
2018-07-25T18:00:03.543Z,32.71
2018-07-25T18:05:03.540Z,32.42
2018-07-25T18:10:03.543Z,31.95
2018-07-25T18:15:03.557Z,31.48
2018-07-25T18:20:03.547Z,31
2018-07-25T18:25:03.553Z,30.6
2018-07-25T18:30:03.560Z,29.95
2018-07-25T18:35:03.556Z,29.45
2018-07-25T18:40:03.561Z,29.13
2018-07-25T18:45:03.566Z,28.85
2018-07-25T18:50:03.562Z,28.56
2018-07-25T18:55:03.566Z,28.41
2018-07-25T19:00:03.581Z,28.2
2018-07-25T19:05:03.574Z,27.94
2018-07-25T19:10:03.575Z,27.65
2018-07-25T19:15:03.577Z,27.52
2018-07-25T19:20:03.579Z,27.31
2018-07-25T19:25:03.581Z,27.07
2018-07-25T19:30:03.640Z,26.91
2018-07-25T19:35:03.631Z,26.83
2018-07-25T19:40:03.593Z,26.73
2018-07-25T19:45:03.598Z,26.6
2018-07-25T19:50:03.597Z,26.5
2018-07-25T19:55:03.600Z,26.41
2018-07-25T20:00:03.617Z,26.46
2018-07-25T20:05:03.597Z,26.4
2018-07-25T20:10:03.601Z,26.23
2018-07-25T20:15:03.614Z,26.11
2018-07-25T20:20:03.611Z,25.99
2018-07-25T20:25:03.611Z,25.91
2018-07-25T20:30:03.619Z,25.78
2018-07-25T20:35:03.612Z,25.67
2018-07-25T20:40:03.677Z,25.67
2018-07-25T20:45:03.628Z,25.65
2018-07-25T20:50:03.629Z,25.51
2018-07-25T20:55:03.628Z,25.38
2018-07-25T21:00:04.145Z,25.34
2018-07-25T21:05:03.697Z,25.31
2018-07-25T21:10:03.635Z,25.16
2018-07-25T21:15:03.638Z,24.95
2018-07-25T21:20:03.660Z,24.91
2018-07-25T21:25:03.640Z,24.82
2018-07-25T21:30:03.646Z,24.65
2018-07-25T21:35:03.657Z,24.58
2018-07-25T21:40:03.652Z,24.54
2018-07-25T21:45:03.654Z,24.43
2018-07-25T21:50:03.674Z,24.18
2018-07-25T21:55:03.658Z,23.91
2018-07-25T22:00:03.660Z,23.87
2018-07-25T22:05:03.674Z,23.98
2018-07-25T22:10:03.669Z,23.89
2018-07-25T22:15:03.671Z,23.76
2018-07-25T22:20:03.690Z,23.59
2018-07-25T22:25:03.677Z,23.45
2018-07-25T22:30:03.677Z,23.41
2018-07-25T22:35:03.703Z,23.47
2018-07-25T22:40:03.684Z,23.51
2018-07-25T22:45:03.688Z,23.44
2018-07-25T22:50:03.698Z,23.39
2018-07-25T22:55:03.693Z,23.3
2018-07-25T23:00:04.286Z,23.21
2018-07-25T23:05:03.705Z,23.26
2018-07-25T23:10:03.702Z,23.2
2018-07-25T23:15:03.707Z,23.09
2018-07-25T23:20:03.710Z,23
2018-07-25T23:25:03.706Z,22.87
2018-07-25T23:30:03.712Z,22.8
2018-07-25T23:35:03.729Z,22.68
2018-07-25T23:40:03.726Z,22.57
2018-07-25T23:45:03.724Z,22.47
2018-07-25T23:50:03.740Z,22.22
2018-07-25T23:55:03.724Z,22.09
